Time,TemperatureF,DewpointF,PressureIn,WindDirection,WindDirectionDegrees,WindSpeedMPH,WindSpeedGustMPH,Humidity,HourlyPrecipIn,Conditions,Clouds,dailyrainin,SoftwareType,DateUTC
2013-04-14 00:11:00,60.6,51.5,29.64,SE,135,9.4,-999.0,72,-99.99,,,0.00,Acu-Link.com,2013-04-14 05:11:00,
2013-04-14 00:26:00,60.3,51.6,29.64,SSE,157,9.4,-999.0,73,-99.99,,,0.00,Acu-Link.com,2013-04-14 05:26:00,
2013-04-14 00:42:00,59.5,51.2,29.64,SE,135,9.4,-999.0,74,-99.99,,,0.00,Acu-Link.com,2013-04-14 05:42:00,
2013-04-14 00:57:00,59.9,51.6,29.63,SE,135,11.0,-999.0,74,-99.99,,,0.00,Acu-Link.com,2013-04-14 05:57:00,
2013-04-14 01:12:00,59.7,51.4,29.63,ESE,112,7.4,-999.0,74,-99.99,,,0.00,Acu-Link.com,2013-04-14 06:12:00,
2013-04-14 01:27:00,60.1,51.4,29.62,SSE,157,11.0,-999.0,73,-99.99,,,0.00,Acu-Link.com,2013-04-14 06:27:00,
2013-04-14 01:42:00,60.6,50.8,29.61,SSE,157,12.5,-999.0,70,-99.99,,,0.00,Acu-Link.com,2013-04-14 06:42:00,
2013-04-14 01:57:00,60.6,50.8,29.61,SSE,157,9.8,-999.0,70,-99.99,,,0.00,Acu-Link.com,2013-04-14 06:57:00,
2013-04-14 02:12:00,60.8,50.6,29.61,ESE,112,14.1,-999.0,69,-99.99,,,0.00,Acu-Link.com,2013-04-14 07:12:00,
2013-04-14 02:27:00,60.8,50.6,29.60,SSE,157,7.4,-999.0,69,-99.99,,,0.00,Acu-Link.com,2013-04-14 07:27:00,
2013-04-14 02:42:00,60.8,50.6,29.60,South,180,10.3,-999.0,69,-99.99,,,0.00,Acu-Link.com,2013-04-14 07:42:00,
2013-04-14 02:57:00,60.8,51.0,29.60,South,180,9.8,-999.0,70,-99.99,,,0.00,Acu-Link.com,2013-04-14 07:57:00,
2013-04-14 03:13:00,60.6,51.2,29.60,ESE,112,10.3,-999.0,71,-99.99,,,0.00,Acu-Link.com,2013-04-14 08:13:00,
2013-04-14 03:28:00,60.6,51.2,29.60,South,180,8.3,-999.0,71,-99.99,,,0.00,Acu-Link.com,2013-04-14 08:28:00,
2013-04-14 03:43:00,60.3,51.6,29.60,SSE,157,6.7,-999.0,73,-99.99,,,0.00,Acu-Link.com,2013-04-14 08:43:00,
2013-04-14 03:58:00,59.9,52.0,29.59,South,180,7.8,-999.0,75,-99.99,,,0.00,Acu-Link.com,2013-04-14 08:58:00,
2013-04-14 04:13:00,59.0,51.8,29.59,SSE,157,6.3,-999.0,77,-99.99,,,0.00,Acu-Link.com,2013-04-14 09:13:00,
2013-04-14 04:28:00,59.0,52.1,29.58,SSE,157,5.8,-999.0,78,-99.99,,,0.00,Acu-Link.com,2013-04-14 09:28:00,
2013-04-14 04:44:00,58.6,52.5,29.58,SSE,157,11.4,-999.0,80,-99.99,,,0.00,Acu-Link.com,2013-04-14 09:44:00,
2013-04-14 04:59:00,58.1,52.6,29.57,SSE,157,6.7,-999.0,82,-99.99,,,0.00,Acu-Link.com,2013-04-14 09:59:00,
2013-04-14 05:14:00,57.2,52.7,29.55,SE,135,7.4,-999.0,85,-99.99,,,0.00,Acu-Link.com,2013-04-14 10:14:00,
2013-04-14 05:29:00,56.8,53.0,29.55,SSE,157,8.3,-999.0,87,-99.99,,,0.00,Acu-Link.com,2013-04-14 10:29:00,
2013-04-14 05:44:00,54.7,52.4,29.54,SE,135,6.3,-999.0,92,-99.99,,,0.00,Acu-Link.com,2013-04-14 10:44:00,
2013-04-14 05:59:00,53.4,52.9,29.54,SSE,157,6.3,-999.0,98,-99.99,,,0.00,Acu-Link.com,2013-04-14 10:59:00,
2013-04-14 06:14:00,53.1,52.5,29.53,SE,135,7.8,-999.0,98,-99.99,,,0.00,Acu-Link.com,2013-04-14 11:14:00,
2013-04-14 06:29:00,53.2,52.7,29.53,SSE,157,6.7,-999.0,98,-99.99,,,0.00,Acu-Link.com,2013-04-14 11:29:00,
2013-04-14 06:44:00,53.2,52.7,29.52,ESE,112,7.4,-999.0,98,-99.99,,,0.00,Acu-Link.com,2013-04-14 11:44:00,
2013-04-14 06:59:00,53.6,53.0,29.53,SSE,157,7.4,-999.0,98,-99.99,,,0.00,Acu-Link.com,2013-04-14 11:59:00,
2013-04-14 07:14:00,53.4,52.9,29.54,SE,135,6.3,-999.0,98,-99.99,,,0.00,Acu-Link.com,2013-04-14 12:14:00,
2013-04-14 07:29:00,53.8,53.2,29.53,SSE,157,7.8,-999.0,98,-99.99,,,0.00,Acu-Link.com,2013-04-14 12:29:00,
2013-04-14 07:44:00,54.7,54.1,29.53,South,180,8.3,-999.0,98,-99.99,,,0.00,Acu-Link.com,2013-04-14 12:44:00,
2013-04-14 07:59:00,55.6,54.5,29.53,SSE,157,8.9,-999.0,96,-99.99,,,0.00,Acu-Link.com,2013-04-14 12:59:00,
2013-04-14 08:14:00,56.1,54.4,29.52,SE,135,8.9,-999.0,94,-99.99,,,0.00,Acu-Link.com,2013-04-14 13:14:00,
2013-04-14 08:30:00,58.3,55.4,29.52,SSE,157,5.8,-999.0,90,-99.99,,,0.00,Acu-Link.com,2013-04-14 13:30:00,
2013-04-14 08:45:00,59.2,55.9,29.52,SSE,157,10.3,-999.0,89,-99.99,,,0.00,Acu-Link.com,2013-04-14 13:45:00,
2013-04-14 09:00:00,61.2,56.6,29.52,South,180,9.4,-999.0,85,-99.99,,,0.00,Acu-Link.com,2013-04-14 14:00:00,
2013-04-14 09:15:00,62.6,57.0,29.51,South,180,13.0,-999.0,82,-99.99,,,0.00,Acu-Link.com,2013-04-14 14:15:00,
2013-04-14 09:30:00,64.2,56.9,29.51,SSW,202,9.8,-999.0,77,-99.99,,,0.00,Acu-Link.com,2013-04-14 14:30:00,
2013-04-14 09:45:00,64.9,56.8,29.50,South,180,11.4,-999.0,75,-99.99,,,0.00,Acu-Link.com,2013-04-14 14:45:00,
2013-04-14 10:00:00,65.7,56.8,29.50,West,270,16.6,-999.0,73,-99.99,,,0.00,Acu-Link.com,2013-04-14 15:00:00,
2013-04-14 10:15:00,66.4,57.1,29.49,SW,225,15.0,-999.0,72,-99.99,,,0.00,Acu-Link.com,2013-04-14 15:15:00,
2013-04-14 10:30:00,68.0,57.4,29.49,WSW,247,7.4,-999.0,69,-99.99,,,0.00,Acu-Link.com,2013-04-14 15:30:00,
2013-04-14 10:45:00,69.6,57.3,29.48,SSW,202,11.4,-999.0,65,-99.99,,,0.00,Acu-Link.com,2013-04-14 15:45:00,
2013-04-14 11:00:00,70.7,57.9,29.49,South,180,11.9,-999.0,64,-99.99,,,0.00,Acu-Link.com,2013-04-14 16:00:00,
2013-04-14 11:15:00,72.0,58.2,29.48,SSW,202,10.3,-999.0,62,-99.99,,,0.00,Acu-Link.com,2013-04-14 16:15:00,
2013-04-14 11:30:00,75.4,58.6,29.48,SSW,202,13.0,-999.0,56,-99.99,,,0.00,Acu-Link.com,2013-04-14 16:30:00,
2013-04-14 11:45:00,77.5,57.4,29.48,South,180,6.7,-999.0,50,-99.99,,,0.00,Acu-Link.com,2013-04-14 16:45:00,
2013-04-14 12:00:00,78.4,55.9,29.48,West,270,11.0,-999.0,46,-99.99,,,0.00,Acu-Link.com,2013-04-14 17:00:00,
2013-04-14 12:16:00,78.6,55.5,29.47,SSW,202,11.0,-999.0,45,-99.99,,,0.00,Acu-Link.com,2013-04-14 17:16:00,
2013-04-14 12:31:00,80.1,54.9,29.47,SSW,202,9.8,-999.0,42,-99.99,,,0.00,Acu-Link.com,2013-04-14 17:31:00,
2013-04-14 12:46:00,81.9,57.1,29.46,SSW,202,4.7,-999.0,43,-99.99,,,0.00,Acu-Link.com,2013-04-14 17:46:00,
2013-04-14 13:01:00,84.4,55.2,29.45,West,270,6.3,-999.0,37,-99.99,,,0.00,Acu-Link.com,2013-04-14 18:01:00,
2013-04-14 13:31:00,88.2,43.3,29.44,South,180,7.8,-999.0,21,-99.99,,,0.00,Acu-Link.com,2013-04-14 18:31:00,
2013-04-14 13:46:00,88.5,42.3,29.43,West,270,13.4,-999.0,20,-99.99,,,0.00,Acu-Link.com,2013-04-14 18:46:00,
2013-04-14 14:01:00,88.9,41.3,29.42,West,270,11.0,-999.0,19,-99.99,,,0.00,Acu-Link.com,2013-04-14 19:01:00,
2013-04-14 14:16:00,90.5,28.8,29.42,SW,225,9.8,-999.0,11,-99.99,,,0.00,Acu-Link.com,2013-04-14 19:16:00,
2013-04-14 14:31:00,91.4,91.1,29.41,West,270,12.5,-999.0,99,-99.99,,,0.00,Acu-Link.com,2013-04-14 19:31:00,
2013-04-14 14:46:00,90.7,90.4,29.41,West,270,9.4,-999.0,99,-99.99,,,0.00,Acu-Link.com,2013-04-14 19:46:00,
2013-04-14 15:17:00,91.9,91.6,29.40,West,270,8.9,-999.0,99,-99.99,,,0.00,Acu-Link.com,2013-04-14 20:17:00,
2013-04-14 15:32:00,92.7,92.3,29.40,WSW,247,11.0,-999.0,99,-99.99,,,0.00,Acu-Link.com,2013-04-14 20:32:00,
2013-04-14 15:47:00,92.5,92.2,29.39,West,270,12.5,-999.0,99,-99.99,,,0.00,Acu-Link.com,2013-04-14 20:47:00,
2013-04-14 16:02:00,92.1,91.8,29.39,West,270,11.9,-999.0,99,-99.99,,,0.00,Acu-Link.com,2013-04-14 21:02:00,
2013-04-14 16:17:00,92.8,92.5,29.39,West,270,12.5,-999.0,99,-99.99,,,0.00,Acu-Link.com,2013-04-14 21:17:00,
2013-04-14 16:32:00,91.9,91.6,29.39,WSW,247,6.3,-999.0,99,-99.99,,,0.00,Acu-Link.com,2013-04-14 21:32:00,
2013-04-14 16:47:00,91.0,90.7,29.39,NW,315,11.9,-999.0,99,-99.99,,,0.00,Acu-Link.com,2013-04-14 21:47:00,
2013-04-14 17:02:00,89.4,44.3,29.39,NNE,22,14.1,-999.0,21,-99.99,,,0.00,Acu-Link.com,2013-04-14 22:02:00,
2013-04-14 17:17:00,89.1,42.7,29.39,NNE,22,9.8,-999.0,20,-99.99,,,0.00,Acu-Link.com,2013-04-14 22:17:00,
2013-04-14 17:32:00,89.1,47.5,29.39,NE,45,6.7,-999.0,24,-99.99,,,0.00,Acu-Link.com,2013-04-14 22:32:00,
2013-04-14 17:47:00,88.2,48.9,29.39,NNE,22,8.9,-999.0,26,-99.99,,,0.00,Acu-Link.com,2013-04-14 22:47:00,
2013-04-14 18:02:00,87.1,50.0,29.39,North,0,9.8,-999.0,28,-99.99,,,0.00,Acu-Link.com,2013-04-14 23:02:00,
2013-04-14 18:17:00,86.7,49.7,29.40,NNW,337,4.7,-999.0,28,-99.99,,,0.00,Acu-Link.com,2013-04-14 23:17:00,
2013-04-14 18:32:00,87.1,53.6,29.40,North,0,7.4,-999.0,32,-99.99,,,0.00,Acu-Link.com,2013-04-14 23:32:00,
2013-04-14 18:47:00,85.3,51.2,29.40,NE,45,8.3,-999.0,31,-99.99,,,0.00,Acu-Link.com,2013-04-14 23:47:00,
2013-04-14 19:03:00,84.6,53.9,29.40,NE,45,4.3,-999.0,35,-99.99,,,0.00,Acu-Link.com,2013-04-15 00:03:00,
2013-04-14 19:18:00,82.0,53.9,29.41,NE,45,4.3,-999.0,38,-99.99,,,0.00,Acu-Link.com,2013-04-15 00:18:00,
2013-04-14 19:33:00,80.6,52.6,29.40,NNE,22,6.3,-999.0,38,-99.99,,,0.00,Acu-Link.com,2013-04-15 00:33:00,
2013-04-14 19:48:00,79.7,51.8,29.40,NE,45,4.7,-999.0,38,-99.99,,,0.00,Acu-Link.com,2013-04-15 00:48:00,
2013-04-14 20:03:00,77.9,53.6,29.41,East,90,6.3,-999.0,43,-99.99,,,0.00,Acu-Link.com,2013-04-15 01:03:00,
2013-04-14 20:18:00,76.1,53.8,29.41,NE,45,3.8,-999.0,46,-99.99,,,0.00,Acu-Link.com,2013-04-15 01:18:00,
2013-04-14 20:33:00,74.8,54.9,29.42,East,90,6.3,-999.0,50,-99.99,,,0.00,Acu-Link.com,2013-04-15 01:33:00,
2013-04-14 20:48:00,73.9,56.2,29.42,ENE,67,5.1,-999.0,54,-99.99,,,0.00,Acu-Link.com,2013-04-15 01:48:00,
2013-04-14 21:03:00,74.1,55.9,29.42,ENE,67,8.3,-999.0,53,-99.99,,,0.00,Acu-Link.com,2013-04-15 02:03:00,
2013-04-14 21:18:00,74.5,55.2,29.42,ENE,67,10.3,-999.0,51,-99.99,,,0.00,Acu-Link.com,2013-04-15 02:18:00,
2013-04-14 21:33:00,74.7,54.8,29.43,ENE,67,9.4,-999.0,50,-99.99,,,0.00,Acu-Link.com,2013-04-15 02:33:00,
2013-04-14 21:48:00,71.2,55.2,29.44,NNE,22,5.1,-999.0,57,-99.99,,,0.00,Acu-Link.com,2013-04-15 02:48:00,
2013-04-14 22:03:00,71.6,54.1,29.47,NE,45,6.7,-999.0,54,-99.99,,,0.00,Acu-Link.com,2013-04-15 03:03:00,
2013-04-14 22:18:00,70.2,59.9,29.47,NE,45,8.3,-999.0,70,-99.99,,,0.00,Acu-Link.com,2013-04-15 03:18:00,
2013-04-14 22:33:00,69.1,60.8,29.47,NNE,22,8.9,-999.0,75,-99.99,,,0.00,Acu-Link.com,2013-04-15 03:33:00,
2013-04-14 22:49:00,68.2,60.7,29.48,NE,45,10.3,-999.0,77,-99.99,,,0.00,Acu-Link.com,2013-04-15 03:49:00,
2013-04-14 23:04:00,67.6,61.2,29.49,NNE,22,9.8,-999.0,80,-99.99,,,0.00,Acu-Link.com,2013-04-15 04:04:00,
2013-04-14 23:19:00,67.6,61.6,29.49,ENE,67,16.1,-999.0,81,-99.99,,,0.00,Acu-Link.com,2013-04-15 04:19:00,
2013-04-14 23:34:00,66.7,60.7,29.49,ENE,67,13.0,-999.0,81,-99.99,,,0.00,Acu-Link.com,2013-04-15 04:34:00,
2013-04-14 23:49:00,65.8,58.8,29.49,ENE,67,19.7,-999.0,78,-99.99,,,0.08,Acu-Link.com,2013-04-15 04:49:00,